Gardenville, PA (18926)

4:25 PM EDT on August 27, 2015 (GMT -0400)
Coldspring | | Change Station
CLOSE
Current Station
Personal Weather Station
Location: Doylestown, PA
Elevation: 354 ft
Nearby Weather Stations

Elev 354 ft 40.35 °N, 75.10 °W | Updated 29 seconds ago

Overcast
Overcast
75.6 °F
Feels Like 78 °F
N
0.0
Wind Variable Wind from NE
Gusts 3.0 mph

Today
High -- | Low -- °F
--% Chance of Precip.
Yesterday
High -- | Low -- °F
Precip. -- in
6:22 AM 7:40 PM
Waxing Gibbous, 95% visible
Pressure 30.06 in
Visibility 10.0 miles
Clouds Mostly Cloudy 6000 ft
Heat Index 78 °F
Dew Point 59 °F
Humidity 57%
Rainfall 0.00 in
Snow Depth Not available.
UV 3 out of 12
Pollen 9.30 out of 12
Air Quality Not available.
Flu Activity Not available.
METAR KDYL 271954Z AUTO 33005KT 10SM BKN060 23/12 A3007 RMK AO2 SLP178 T02330117
Pressure 30.06 in
Visibility 10.0 miles
Clouds Mostly Cloudy 6000 ft
Heat Index 78 °F
Dew Point 59 °F
Humidity 57%
Rainfall 0.00 in
Snow Depth Not available.
UV 3 out of 12
Pollen 9.30 out of 12
Air Quality Not available.
Flu Activity Not available.
METAR KDYL 271954Z AUTO 33005KT 10SM BKN060 23/12 A3007 RMK AO2 SLP178 T02330117

10-Day Weather Forecast

×

Almanac

Astronomy

Aug. 27, 2015 Rise Set
Actual Time
Civil Twilight
Nautical Twilight
Astronomical Twilight
Moon
Length of Visible Light
Length of Day
Tomorrow will be .
, % of the Moon is Illuminated

Today's Extremes

State Highs State Lows

Community

WunderPhotos

Upload Photos

1,850,206 photos uploaded!

WunderBlogs® & News

Nearby

Air Quality

  Air Quality AQ Index Pollutant
Not available.

Snow Depth

Station Depth Elevation

Earthquake Activity

City Distance Mag. Time & Date
Minimum magnitude displayed is 2.5.

Coastal Water Temperatures

Place Temperature

Stations

Nearby Weather Stations

Station Location Temp. Windchill Dew Point Humidity Wind Precip. Elev Updated Type